createdAt,value
2023-03-01T00:04:40.862Z,93.46
2023-03-01T00:09:42.541Z,93.30
2023-03-01T00:14:44.150Z,93.63
2023-03-01T00:19:45.786Z,92.95
2023-03-01T00:24:47.503Z,92.63
2023-03-01T00:29:49.102Z,93.02
2023-03-01T00:34:55.230Z,93.77
2023-03-01T00:39:56.942Z,95.82
2023-03-01T00:44:58.637Z,95.14
2023-03-01T00:50:00.400Z,95.57
2023-03-01T00:55:02.105Z,96.35
2023-03-01T01:00:06.721Z,97.05
2023-03-01T01:05:08.621Z,97.23
2023-03-01T01:10:13.878Z,97.44
2023-03-01T01:15:17.525Z,97.90
2023-03-01T01:20:19.316Z,96.74
2023-03-01T01:25:21.279Z,95.83
2023-03-01T01:30:22.998Z,96.46
2023-03-01T01:35:24.724Z,96.48
2023-03-01T01:40:26.459Z,97.08
2023-03-01T01:45:31.440Z,98.07
2023-03-01T01:50:39.295Z,97.51
2023-03-01T01:55:46.314Z,94.73
2023-03-01T02:00:48.970Z,96.25
2023-03-01T02:06:12.185Z,96.65
2023-03-01T02:11:18.218Z,96.47
2023-03-01T02:16:20.768Z,97.57
2023-03-01T02:21:45.253Z,97.25
2023-03-01T02:26:51.168Z,96.49
2023-03-01T02:31:57.498Z,97.40
2023-03-01T02:37:05.631Z,97.47
2023-03-01T02:42:07.878Z,99.63
2023-03-01T02:47:09.615Z,100.00
2023-03-01T02:52:29.859Z,100.00
2023-03-01T02:57:33.926Z,99.20
2023-03-01T03:02:37.169Z,97.72
2023-03-01T03:07:56.494Z,99.08
2023-03-01T03:13:01.969Z,99.78
2023-03-01T03:18:06.016Z,100.00
2023-03-01T03:23:07.977Z,100.00
2023-03-01T03:28:12.523Z,97.15
2023-03-01T03:33:14.952Z,95.75
2023-03-01T03:38:20.064Z,97.60
2023-03-01T03:43:23.958Z,98.60
2023-03-01T03:48:26.828Z,97.05
2023-03-01T03:53:30.091Z,95.60
2023-03-01T03:58:31.861Z,96.44
2023-03-01T04:03:34.232Z,97.97
2023-03-01T04:08:35.910Z,99.58
2023-03-01T04:13:37.561Z,100.00
2023-03-01T04:18:39.215Z,100.00
2023-03-01T04:23:41.959Z,99.37
2023-03-01T04:28:46.308Z,98.12
2023-03-01T04:33:52.377Z,98.62
2023-03-01T04:38:54.807Z,100.00
2023-03-01T04:43:56.641Z,100.00
2023-03-01T04:48:58.359Z,98.17
2023-03-01T04:54:01.446Z,97.23
2023-03-01T04:59:06.691Z,99.10
2023-03-01T05:04:13.912Z,100.00
2023-03-01T05:09:15.595Z,100.00
2023-03-01T05:14:17.237Z,100.00
2023-03-01T05:19:23.574Z,97.32
2023-03-01T05:24:25.682Z,97.93
2023-03-01T05:29:29.378Z,98.25
2023-03-01T05:34:34.092Z,99.71
2023-03-01T05:39:35.866Z,99.05
2023-03-01T05:44:37.841Z,97.48
2023-03-01T05:49:39.894Z,97.95
2023-03-01T05:54:41.656Z,98.06
2023-03-01T05:59:43.279Z,99.31
2023-03-01T06:04:45.020Z,99.61
2023-03-01T06:09:46.801Z,99.67
2023-03-01T06:14:48.801Z,100.00
2023-03-01T06:19:50.529Z,100.00
2023-03-01T06:24:52.243Z,100.00
2023-03-01T06:29:53.976Z,100.00
2023-03-01T06:34:55.817Z,100.00
2023-03-01T06:39:58.086Z,97.84
2023-03-01T06:44:59.781Z,87.38
2023-03-01T06:50:03.258Z,82.33
2023-03-01T06:55:05.771Z,71.60
2023-03-01T07:00:09.202Z,68.50
2023-03-01T07:05:10.908Z,67.66
2023-03-01T07:10:13.627Z,68.64
2023-03-01T07:15:16.475Z,69.75
2023-03-01T07:20:26.463Z,77.04
2023-03-01T07:25:29.063Z,80.94
2023-03-01T07:30:30.804Z,82.31
2023-03-01T07:35:34.788Z,83.27
2023-03-01T07:40:36.824Z,84.79
2023-03-01T07:45:40.604Z,82.46
2023-03-01T07:50:43.338Z,80.31
2023-03-01T07:55:45.177Z,76.37
2023-03-01T08:00:46.989Z,79.85
2023-03-01T08:05:48.630Z,80.32
2023-03-01T08:10:51.418Z,76.38
2023-03-01T08:15:53.817Z,76.15
2023-03-01T08:20:55.690Z,77.67
2023-03-01T08:26:08.709Z,79.57
2023-03-01T08:31:36.365Z,77.74
2023-03-01T08:37:02.241Z,78.61
2023-03-01T08:42:05.251Z,76.66
2023-03-01T08:47:07.560Z,73.73
2023-03-01T08:52:09.819Z,73.07
2023-03-01T08:57:11.870Z,74.33
2023-03-01T09:02:17.599Z,75.10
2023-03-01T09:07:22.369Z,74.45
2023-03-01T09:12:28.418Z,74.57
2023-03-01T09:17:30.076Z,74.81
2023-03-01T09:22:33.795Z,74.54
2023-03-01T09:27:35.433Z,74.77
2023-03-01T09:32:37.151Z,74.69
2023-03-01T09:37:39.512Z,73.30
2023-03-01T09:42:50.005Z,71.76
2023-03-01T09:47:55.615Z,70.19
2023-03-01T09:53:10.307Z,71.40
2023-03-01T09:58:30.485Z,70.20
2023-03-01T10:03:37.523Z,70.33
2023-03-01T10:09:03.667Z,68.72
2023-03-01T10:14:28.489Z,68.10
2023-03-01T10:19:44.911Z,66.08
2023-03-01T10:24:47.814Z,64.17
2023-03-01T10:30:02.122Z,63.49
2023-03-01T10:35:18.650Z,61.70
2023-03-01T10:40:20.341Z,61.72
2023-03-01T10:45:31.178Z,60.18
2023-03-01T10:50:33.219Z,57.29
2023-03-01T10:55:36.265Z,57.90
2023-03-01T11:01:07.254Z,56.47
2023-03-01T11:06:11.935Z,53.69
2023-03-01T11:11:17.656Z,53.18
2023-03-01T11:16:27.090Z,54.84
2023-03-01T11:21:32.805Z,53.30
2023-03-01T11:26:39.703Z,50.05
2023-03-01T11:31:56.790Z,51.41
2023-03-01T11:37:03.104Z,49.08
2023-03-01T11:42:19.419Z,48.13
2023-03-01T11:47:27.434Z,46.73
2023-03-01T11:52:43.737Z,48.24
2023-03-01T11:58:08.695Z,47.00
2023-03-01T12:03:36.639Z,44.87
2023-03-01T12:08:52.967Z,46.09
2023-03-01T12:14:00.309Z,43.26
2023-03-01T12:19:39.256Z,41.06
2023-03-01T12:25:02.188Z,42.70
2023-03-01T12:30:31.157Z,41.75
2023-03-01T12:35:32.772Z,44.70
2023-03-01T12:40:49.354Z,44.79
2023-03-01T12:46:06.412Z,44.84
2023-03-01T12:51:11.812Z,44.93
2023-03-01T12:56:19.004Z,46.72
2023-03-01T13:01:27.607Z,48.33
2023-03-01T13:06:43.226Z,48.89
2023-03-01T13:11:45.858Z,49.44
2023-03-01T13:16:50.436Z,49.16
2023-03-01T13:21:57.744Z,50.11
2023-03-01T13:27:08.656Z,49.20
2023-03-01T13:32:37.995Z,48.07
2023-03-01T13:37:45.983Z,46.26
2023-03-01T13:43:05.757Z,46.97
2023-03-01T13:48:12.955Z,47.60
2023-03-01T13:53:20.917Z,48.63
2023-03-01T13:58:29.186Z,48.03
2023-03-01T14:03:32.882Z,46.97
2023-03-01T14:08:38.104Z,46.77
2023-03-01T14:14:04.719Z,45.58
2023-03-01T14:19:33.066Z,47.54
2023-03-01T14:24:39.155Z,47.69
2023-03-01T14:29:41.479Z,48.20
2023-03-01T14:34:48.761Z,46.65
2023-03-01T14:39:51.218Z,46.19
2023-03-01T14:44:55.124Z,45.17
2023-03-01T14:50:02.174Z,46.59
2023-03-01T14:55:08.421Z,46.80
2023-03-01T15:00:18.583Z,47.24
2023-03-01T15:05:27.609Z,47.21
2023-03-01T15:10:35.955Z,47.80
2023-03-01T15:15:42.330Z,48.58
2023-03-01T15:20:44.333Z,48.60
2023-03-01T15:25:46.313Z,49.15
2023-03-01T15:30:56.529Z,49.58
2023-03-01T15:36:00.466Z,49.62
2023-03-01T15:41:23.667Z,49.70
2023-03-01T15:46:38.697Z,49.78
2023-03-01T15:51:40.579Z,49.23
2023-03-01T15:56:42.267Z,49.14
2023-03-01T16:01:44.864Z,49.36
2023-03-01T16:06:46.568Z,48.78
2023-03-01T16:11:49.190Z,49.72
2023-03-01T16:16:50.888Z,50.68
2023-03-01T16:21:52.525Z,50.79
2023-03-01T16:26:54.251Z,50.82
2023-03-01T16:31:56.219Z,51.49
2023-03-01T16:36:58.104Z,51.92
2023-03-01T16:42:01.552Z,52.45
2023-03-01T16:47:03.295Z,52.90
2023-03-01T16:52:04.916Z,52.06
2023-03-01T16:57:06.611Z,53.23
2023-03-01T17:02:13.558Z,53.70
2023-03-01T17:07:15.294Z,55.31
2023-03-01T17:12:18.003Z,60.98
2023-03-01T17:17:19.785Z,62.58
2023-03-01T17:22:21.496Z,64.14
2023-03-01T17:27:25.482Z,65.48
2023-03-01T17:32:27.865Z,64.67
2023-03-01T17:37:29.688Z,62.62
2023-03-01T17:42:31.553Z,63.84
2023-03-01T17:47:33.250Z,65.50
2023-03-01T17:52:34.917Z,67.12
2023-03-01T17:57:40.633Z,66.59
2023-03-01T18:02:42.905Z,68.90
2023-03-01T18:07:44.710Z,68.58
2023-03-01T18:12:46.871Z,70.71
2023-03-01T18:17:48.942Z,72.54
2023-03-01T18:22:52.755Z,74.07
2023-03-01T18:27:54.382Z,73.00
2023-03-01T18:32:56.486Z,72.58
2023-03-01T18:37:58.185Z,73.51
2023-03-01T18:43:00.355Z,73.82
2023-03-01T18:48:02.462Z,74.89
2023-03-01T18:53:04.249Z,76.14
2023-03-01T18:58:06.216Z,77.51
2023-03-01T19:03:08.084Z,78.48
2023-03-01T19:08:09.893Z,79.24
2023-03-01T19:13:11.663Z,80.15
2023-03-01T19:18:13.357Z,79.97
2023-03-01T19:23:15.256Z,80.77
2023-03-01T19:28:17.282Z,81.36
2023-03-01T19:33:19.177Z,81.67
2023-03-01T19:38:20.946Z,78.49
2023-03-01T19:43:23.686Z,79.71
2023-03-01T19:48:25.688Z,80.80
2023-03-01T19:53:27.567Z,80.94
2023-03-01T19:58:30.786Z,81.00
2023-03-01T20:03:36.373Z,81.35
2023-03-01T20:08:40.275Z,81.28
2023-03-01T20:13:42.444Z,81.14
2023-03-01T20:18:44.490Z,79.88
2023-03-01T20:23:47.263Z,77.77
2023-03-01T20:28:54.070Z,76.93
2023-03-01T20:33:57.576Z,79.06
2023-03-01T20:38:59.618Z,77.59
2023-03-01T20:44:01.380Z,77.20
2023-03-01T20:49:04.350Z,77.27
2023-03-01T20:54:06.286Z,78.70
2023-03-01T20:59:09.788Z,78.57
2023-03-01T21:04:11.707Z,79.37
2023-03-01T21:09:13.446Z,80.47
2023-03-01T21:14:15.122Z,81.79
2023-03-01T21:19:17.172Z,81.31
2023-03-01T21:24:18.856Z,82.63
2023-03-01T21:29:20.679Z,83.03
2023-03-01T21:34:22.323Z,83.50
2023-03-01T21:39:28.850Z,82.67
2023-03-01T21:44:31.667Z,82.54
2023-03-01T21:49:33.297Z,83.52
2023-03-01T21:54:35.148Z,82.87
2023-03-01T21:59:36.903Z,83.38
2023-03-01T22:04:38.536Z,83.61
2023-03-01T22:09:40.391Z,84.14
2023-03-01T22:14:43.852Z,84.62
2023-03-01T22:19:46.377Z,85.07
2023-03-01T22:24:48.014Z,85.10
2023-03-01T22:29:49.641Z,85.97
2023-03-01T22:34:51.317Z,84.70
2023-03-01T22:39:53.066Z,86.05
2023-03-01T22:44:54.730Z,86.49
2023-03-01T22:49:57.056Z,87.60
2023-03-01T22:54:58.972Z,87.25
2023-03-01T23:00:00.706Z,87.22
2023-03-01T23:05:02.511Z,88.38
2023-03-01T23:10:05.560Z,87.18
2023-03-01T23:15:08.447Z,87.76
2023-03-01T23:20:10.875Z,88.13
2023-03-01T23:25:13.219Z,89.36
2023-03-01T23:30:15.066Z,89.88
2023-03-01T23:35:16.788Z,90.33
2023-03-01T23:40:20.549Z,90.07
2023-03-01T23:45:22.218Z,86.62
2023-03-01T23:50:25.009Z,87.12
2023-03-01T23:55:29.396Z,89.32
